Time;durP1;ratioP1;P1;durP2;ratioP2;P2;SDS_P1;SDS_P2;PMS_P1;PMS_P2;Temp;Humidity;BMP_temperature;BMP_pressure;BME280_temperature;BME280_humidity;BME280_pressure;Samples;Min_cycle;Max_cycle;Signal;HPM_P1;HPM_P2
2021/10/17 00:01:01;;;;;;;43.95;30.15;;;;;;;4.20;93.58;100889.34;1666783;84;21878;-70
2021/10/17 00:03:28;;;;;;;45.52;30.08;;;;;;;4.34;93.92;100888.28;1680245;83;21049;-70
2021/10/17 00:05:55;;;;;;;39.20;26.95;;;;;;;4.51;94.19;100886.52;1677151;84;21050;-68
2021/10/17 00:08:22;;;;;;;39.65;25.95;;;;;;;4.61;94.39;100874.48;1673931;84;21026;-70
2021/10/17 00:10:49;;;;;;;46.30;29.12;;;;;;;4.69;94.44;100877.40;1687812;83;20966;-70
2021/10/17 00:13:16;;;;;;;46.65;30.15;;;;;;;4.68;94.10;100875.78;1658859;85;22137;-70
2021/10/17 00:15:43;;;;;;;48.42;31.00;;;;;;;4.58;93.74;100878.06;1674293;84;21574;-70
2021/10/17 00:18:11;;;;;;;40.30;27.62;;;;;;;4.51;93.54;100876.77;1674582;84;21532;-70
2021/10/17 00:20:39;;;;;;;38.40;25.40;;;;;;;4.45;93.40;100885.02;1672464;85;20987;-70
2021/10/17 00:23:07;;;;;;;35.70;24.30;;;;;;;4.40;93.27;100884.01;1684137;83;21042;-70
2021/10/17 00:25:34;;;;;;;37.95;24.67;;;;;;;4.38;93.22;100881.58;1657619;85;21800;-70
2021/10/17 00:28:08;;;;;;;32.50;23.18;;;;;;;4.39;93.15;100879.75;1688074;83;21057;-70
2021/10/17 00:30:44;;;;;;;35.15;23.22;;;;;;;4.40;93.12;100882.17;1686954;83;21153;-70
2021/10/17 00:33:11;;;;;;;32.05;22.27;;;;;;;4.44;93.14;100881.24;1675973;84;21537;-70
2021/10/17 00:35:39;;;;;;;34.78;24.27;;;;;;;4.48;93.12;100880.34;1688619;83;21670;-70
2021/10/17 00:38:05;;;;;;;36.45;24.35;;;;;;;4.48;93.08;100873.73;1680912;83;21170;-70
2021/10/17 00:40:32;;;;;;;35.63;25.15;;;;;;;4.46;93.00;100869.44;1664530;84;21082;-71
2021/10/17 00:42:58;;;;;;;35.33;24.85;;;;;;;4.42;92.87;100874.05;1686054;83;21513;-69
2021/10/17 00:45:30;;;;;;;34.92;24.35;;;;;;;4.39;92.84;100873.14;1685598;83;21069;-71
2021/10/17 00:47:58;;;;;;;33.13;25.10;;;;;;;4.38;92.83;100878.94;1674890;83;21046;-71
2021/10/17 00:50:25;;;;;;;35.98;25.48;;;;;;;4.38;92.77;100873.65;1687664;83;21854;-71
2021/10/17 00:52:53;;;;;;;41.50;29.23;;;;;;;4.35;92.73;100872.74;1685453;84;21134;-70
2021/10/17 00:55:22;;;;;;;38.38;25.75;;;;;;;4.35;92.76;100874.06;1679932;84;21070;-71
2021/10/17 00:57:49;;;;;;;34.53;24.57;;;;;;;4.39;92.83;100872.62;1673341;84;21605;-70
2021/10/17 01:00:16;;;;;;;34.95;25.08;;;;;;;4.40;92.82;100872.91;1688020;83;21548;-70
2021/10/17 01:02:44;;;;;;;38.08;25.23;;;;;;;4.40;92.80;100868.14;1688537;83;21239;-69
2021/10/17 01:05:18;;;;;;;40.73;28.30;;;;;;;4.39;92.79;100872.62;1691894;83;21034;-71
2021/10/17 01:07:43;;;;;;;40.33;27.45;;;;;;;4.37;92.84;100872.00;1697492;84;21081;-71
2021/10/17 01:10:13;;;;;;;42.75;29.02;;;;;;;4.38;92.89;100866.23;1680597;83;21027;-70
2021/10/17 01:12:41;;;;;;;41.70;28.25;;;;;;;4.41;92.99;100869.78;1691175;83;21015;-71
2021/10/17 01:15:09;;;;;;;38.17;26.35;;;;;;;4.45;93.08;100863.86;1677714;85;21175;-71
2021/10/17 01:17:38;;;;;;;35.75;25.97;;;;;;;4.53;93.13;100873.90;1688948;83;21084;-72
2021/10/17 01:20:08;;;;;;;35.00;25.48;;;;;;;4.57;93.11;100874.58;1691298;83;21059;-71
2021/10/17 01:22:37;;;;;;;33.38;23.73;;;;;;;4.62;93.08;100867.36;1689869;83;21573;-71
2021/10/17 01:25:05;;;;;;;34.43;23.22;;;;;;;4.66;93.04;100870.69;1689846;83;21025;-72
2021/10/17 01:27:34;;;;;;;33.95;24.05;;;;;;;4.67;92.96;100872.33;1689659;83;20992;-72
2021/10/17 01:30:01;;;;;;;29.75;22.15;;;;;;;4.64;92.88;100872.75;1680582;84;21050;-72
2021/10/17 01:32:29;;;;;;;31.77;22.13;;;;;;;4.60;92.88;100873.36;1688071;83;21061;-72
2021/10/17 01:34:56;;;;;;;32.50;23.90;;;;;;;4.59;92.87;100871.74;1680261;84;21091;-73
2021/10/17 01:37:24;;;;;;;34.13;23.77;;;;;;;4.58;92.89;100875.42;1676798;84;21081;-71
2021/10/17 01:39:52;;;;;;;31.90;23.30;;;;;;;4.58;92.82;100877.55;1687981;83;21154;-71
2021/10/17 01:42:19;;;;;;;28.90;21.95;;;;;;;4.58;92.78;100876.23;1676170;83;21479;-71
2021/10/17 01:44:48;;;;;;;31.55;22.67;;;;;;;4.55;92.71;100875.33;1691140;83;21485;-72
2021/10/17 01:47:15;;;;;;;32.35;22.48;;;;;;;4.54;92.68;100879.48;1692234;83;21497;-72
2021/10/17 01:49:42;;;;;;;30.37;22.77;;;;;;;4.50;92.62;100882.25;1688567;83;21029;-71
2021/10/17 01:52:08;;;;;;;34.48;23.73;;;;;;;4.45;92.57;100881.05;1691372;83;22366;-71
2021/10/17 01:54:37;;;;;;;33.30;24.45;;;;;;;4.43;92.52;100880.95;1690071;83;21767;-72
2021/10/17 01:57:04;;;;;;;32.25;23.12;;;;;;;4.40;92.48;100877.39;1658030;84;21109;-71
2021/10/17 01:59:33;;;;;;;38.38;25.27;;;;;;;4.36;92.45;100881.48;1684269;83;21022;-71
2021/10/17 02:02:02;;;;;;;41.02;26.87;;;;;;;4.34;92.47;100879.55;1672244;84;21095;-71
2021/10/17 02:04:29;;;;;;;36.20;25.00;;;;;;;4.36;92.51;100881.48;1674070;84;21194;-71
2021/10/17 02:06:58;;;;;;;36.65;24.25;;;;;;;4.37;92.53;100883.91;1691153;83;21136;-70
2021/10/17 02:09:25;;;;;;;39.80;26.07;;;;;;;4.41;92.62;100886.98;1680092;85;21063;-70
2021/10/17 02:11:52;;;;;;;38.17;24.98;;;;;;;4.44;92.78;100883.41;1690517;83;21071;-71
2021/10/17 02:14:19;;;;;;;36.83;24.52;;;;;;;4.51;92.94;100884.70;1692207;83;21139;-72
2021/10/17 02:16:50;;;;;;;36.10;24.43;;;;;;;4.59;93.13;100888.94;1690704;84;21062;-72
2021/10/17 02:19:17;;;;;;;33.98;23.65;;;;;;;4.65;93.30;100884.95;1680634;83;21011;-73
2021/10/17 02:21:44;;;;;;;34.53;24.15;;;;;;;4.70;93.40;100888.28;1689775;83;21537;-73
2021/10/17 02:24:12;;;;;;;35.33;24.90;;;;;;;4.74;93.48;100885.53;1670185;84;21035;-72
2021/10/17 02:26:41;;;;;;;33.45;23.22;;;;;;;4.77;93.45;100888.25;1690993;83;21046;-72
2021/10/17 02:29:10;;;;;;;33.10;22.98;;;;;;;4.75;93.31;100892.44;1690328;83;21213;-72
2021/10/17 02:31:39;;;;;;;33.92;23.67;;;;;;;4.72;93.16;100891.53;1673398;84;20935;-72
2021/10/17 02:34:06;;;;;;;33.13;24.52;;;;;;;4.72;93.15;100892.86;1690604;84;21034;-73
2021/10/17 02:36:34;;;;;;;31.30;22.58;;;;;;;4.71;93.07;100892.56;1677836;84;22437;-73
2021/10/17 02:39:03;;;;;;;30.15;21.57;;;;;;;4.69;92.89;100894.59;1682207;83;21101;-73
2021/10/17 02:41:35;;;;;;;34.15;22.55;;;;;;;4.64;92.70;100895.23;1689459;84;21170;-73
2021/10/17 02:44:04;;;;;;;28.65;19.50;;;;;;;4.58;92.67;100900.03;1677276;84;21069;-71
2021/10/17 02:46:33;;;;;;;26.60;18.30;;;;;;;4.59;92.83;100895.55;1689048;83;21003;-72
2021/10/17 02:49:01;;;;;;;30.00;20.27;;;;;;;4.62;93.11;100888.02;1690871;84;21176;-72
2021/10/17 02:51:31;;;;;;;25.95;18.80;;;;;;;4.67;93.29;100886.89;1677010;85;21122;-72
2021/10/17 02:54:01;;;;;;;24.23;17.48;;;;;;;4.73;93.48;100891.83;1689099;83;21285;-71
2021/10/17 02:56:29;;;;;;;25.90;17.90;;;;;;;4.80;93.67;100888.64;1705399;83;21201;-72
2021/10/17 02:58:57;;;;;;;25.48;18.27;;;;;;;4.88;93.85;100890.25;1696209;83;21204;-72
2021/10/17 03:01:26;;;;;;;28.70;19.42;;;;;;;4.93;93.99;100886.44;1672695;83;21063;-72
2021/10/17 03:03:54;;;;;;;28.70;19.37;;;;;;;4.98;94.13;100889.28;1692599;83;21082;-71
2021/10/17 03:06:25;;;;;;;26.30;18.90;;;;;;;5.05;94.29;100886.08;1675310;84;21598;-72
2021/10/17 03:08:54;;;;;;;27.77;19.62;;;;;;;5.15;94.48;100896.21;1687028;83;21518;-72
2021/10/17 03:11:24;;;;;;;27.32;19.27;;;;;;;5.21;94.54;100890.59;1690904;84;21035;-72
2021/10/17 03:13:53;;;;;;;29.25;20.43;;;;;;;5.27;94.55;100889.73;1679388;84;21067;-72
2021/10/17 03:16:22;;;;;;;24.77;17.70;;;;;;;5.33;94.48;100896.80;1676452;83;21119;-72
2021/10/17 03:18:50;;;;;;;24.12;17.62;;;;;;;5.37;94.48;100894.86;1676999;84;21115;-72
2021/10/17 03:21:18;;;;;;;23.73;17.87;;;;;;;5.41;94.47;100900.53;1690362;84;21062;-73
2021/10/17 03:23:53;;;;;;;25.35;17.35;;;;;;;5.46;94.49;100897.23;1688347;83;21060;-71
2021/10/17 03:26:21;;;;;;;24.12;18.32;;;;;;;5.50;94.50;100895.80;1692167;83;21049;-71
2021/10/17 03:28:49;;;;;;;26.85;18.57;;;;;;;5.53;94.52;100895.38;1692325;83;21557;-71
2021/10/17 03:31:17;;;;;;;25.97;18.52;;;;;;;5.58;94.48;100894.20;1684706;83;22012;-72
2021/10/17 03:33:45;;;;;;;28.00;18.50;;;;;;;5.61;94.46;100894.58;1679562;85;20944;-72
2021/10/17 03:36:14;;;;;;;25.57;18.07;;;;;;;5.66;94.40;100896.59;1689851;83;21094;-72
2021/10/17 03:38:41;;;;;;;25.57;17.98;;;;;;;5.69;94.38;100896.13;1687316;83;21030;-72
2021/10/17 03:41:12;;;;;;;26.12;18.35;;;;;;;5.71;94.36;100893.28;1679921;84;21510;-71
2021/10/17 03:43:44;;;;;;;26.10;17.25;;;;;;;5.74;94.32;100892.86;1684264;84;21486;-72
2021/10/17 03:46:11;;;;;;;26.48;17.27;;;;;;;5.76;94.25;100891.62;1691482;83;21088;-71
2021/10/17 03:48:40;;;;;;;25.62;17.52;;;;;;;5.77;94.13;100901.18;1687307;83;21093;-71
2021/10/17 03:51:09;;;;;;;26.57;18.23;;;;;;;5.76;94.04;100899.57;1677285;84;21055;-71
2021/10/17 03:53:36;;;;;;;23.15;16.80;;;;;;;5.76;93.97;100897.41;1703072;83;20963;-71
2021/10/17 03:56:04;;;;;;;23.75;16.82;;;;;;;5.76;93.92;100898.73;1692312;83;22193;-71
2021/10/17 03:58:31;;;;;;;23.95;17.80;;;;;;;5.75;93.87;100903.23;1691243;83;20892;-72
2021/10/17 04:00:58;;;;;;;25.65;18.85;;;;;;;5.72;93.80;100906.30;1691613;83;21003;-72
2021/10/17 04:03:26;;;;;;;23.02;16.62;;;;;;;5.69;93.74;100900.11;1690559;83;21015;-72
2021/10/17 04:06:00;;;;;;;23.18;17.07;;;;;;;5.68;93.74;100902.47;1691281;83;21248;-71
2021/10/17 04:08:47;;;;;;;27.58;18.87;;;;;;;5.68;93.68;100902.99;1685029;83;21773;-73
2021/10/17 04:11:23;;;;;;;25.20;17.87;;;;;;;5.64;93.56;100903.94;1680762;83;21055;-73
2021/10/17 04:13:50;;;;;;;22.85;16.07;;;;;;;5.62;93.54;100909.44;1686552;83;20955;-72
2021/10/17 04:16:17;;;;;;;25.82;18.12;;;;;;;5.61;93.51;100905.69;1669301;84;21066;-72
2021/10/17 04:18:46;;;;;;;26.05;18.10;;;;;;;5.59;93.43;100906.41;1689661;84;21092;-72
2021/10/17 04:21:15;;;;;;;24.82;17.80;;;;;;;5.56;93.41;100910.33;1677859;85;21125;-73
2021/10/17 04:23:42;;;;;;;25.02;17.07;;;;;;;5.55;93.39;100902.05;1691078;83;21364;-72
2021/10/17 04:26:10;;;;;;;24.35;17.40;;;;;;;5.54;93.38;100899.63;1691557;83;20948;-72
2021/10/17 04:28:39;;;;;;;23.67;17.67;;;;;;;5.57;93.39;100901.86;1682668;83;21680;-73
2021/10/17 04:31:06;;;;;;;24.27;17.95;;;;;;;5.60;93.38;100905.41;1690420;83;21081;-73
2021/10/17 04:33:35;;;;;;;24.90;17.45;;;;;;;5.61;93.36;100907.02;1666231;84;21107;-74
2021/10/17 04:36:02;;;;;;;25.12;17.25;;;;;;;5.63;93.40;100911.08;1690385;83;21060;-72
2021/10/17 04:38:29;;;;;;;27.77;19.48;;;;;;;5.65;93.38;100911.66;1690262;83;21094;-71
2021/10/17 04:40:55;;;;;;;23.57;17.77;;;;;;;5.68;93.39;100906.97;1690912;83;21670;-72
2021/10/17 04:43:22;;;;;;;26.37;16.52;;;;;;;5.74;93.42;100910.08;1679153;84;21047;-71
2021/10/17 04:45:49;;;;;;;23.75;16.87;;;;;;;5.78;93.37;100909.42;1692050;83;21162;-73
2021/10/17 04:48:15;;;;;;;25.43;18.10;;;;;;;5.83;93.34;100912.77;1680009;85;21411;-72
2021/10/17 04:50:43;;;;;;;26.42;17.55;;;;;;;5.88;93.30;100914.23;1692298;83;21091;-72
2021/10/17 04:53:10;;;;;;;25.40;16.62;;;;;;;5.92;93.21;100922.56;1667043;84;21087;-72
2021/10/17 04:55:36;;;;;;;20.92;15.68;;;;;;;5.94;93.16;100919.23;1691909;83;21623;-72
2021/10/17 04:58:06;;;;;;;21.70;16.23;;;;;;;5.98;93.11;100924.39;1674328;84;21318;-73
2021/10/17 05:00:34;;;;;;;21.33;16.27;;;;;;;6.01;93.04;100921.30;1663294;84;21113;-73
2021/10/17 05:03:03;;;;;;;22.60;15.85;;;;;;;6.01;92.96;100923.44;1666755;83;21138;-72
2021/10/17 05:05:31;;;;;;;22.65;16.80;;;;;;;6.03;92.92;100921.91;1655841;85;21514;-72
2021/10/17 05:08:01;;;;;;;21.48;16.42;;;;;;;6.03;92.81;100922.72;1677067;83;21030;-72
2021/10/17 05:10:30;;;;;;;22.17;16.60;;;;;;;6.06;92.78;100930.23;1691813;84;22040;-71
2021/10/17 05:12:57;;;;;;;21.05;15.80;;;;;;;6.10;92.73;100921.33;1679398;84;21020;-72
2021/10/17 05:15:28;;;;;;;22.35;15.48;;;;;;;6.14;92.72;100929.14;1691732;84;21920;-71
2021/10/17 05:17:55;;;;;;;23.67;16.10;;;;;;;6.17;92.63;100934.00;1679352;84;21650;-73
2021/10/17 05:20:22;;;;;;;20.72;14.63;;;;;;;6.21;92.64;100926.42;1674170;85;21047;-73
2021/10/17 05:22:50;;;;;;;20.95;16.17;;;;;;;6.26;92.60;100931.90;1684609;83;22039;-74
2021/10/17 05:25:18;;;;;;;21.30;15.23;;;;;;;6.33;92.57;100931.31;1692570;83;21129;-73
2021/10/17 05:27:52;;;;;;;19.98;14.80;;;;;;;6.38;92.45;100931.45;1679855;85;21105;-73
2021/10/17 05:30:21;;;;;;;25.57;18.07;;;;;;;6.42;92.33;100934.50;1692132;84;21081;-72
2021/10/17 05:32:48;;;;;;;27.35;18.20;;;;;;;6.45;92.19;100935.36;1691458;84;21010;-73
2021/10/17 05:35:16;;;;;;;24.27;16.87;;;;;;;6.46;92.10;100936.48;1692477;84;21791;-73
2021/10/17 05:37:43;;;;;;;22.00;16.77;;;;;;;6.48;92.01;100937.08;1691931;84;20982;-72
2021/10/17 05:40:12;;;;;;;23.00;17.55;;;;;;;6.51;92.01;100933.16;1678705;85;21027;-73
2021/10/17 05:42:40;;;;;;;27.42;17.67;;;;;;;6.55;91.95;100943.65;1691635;83;21389;-73
2021/10/17 05:45:09;;;;;;;21.70;15.60;;;;;;;6.61;91.95;100935.30;1688354;83;22190;-73
2021/10/17 05:47:36;;;;;;;19.27;14.30;;;;;;;6.68;91.92;100932.05;1691790;83;21138;-72
2021/10/17 05:50:06;;;;;;;20.30;15.72;;;;;;;6.73;91.79;100940.98;1688932;84;21030;-72
2021/10/17 05:52:34;;;;;;;21.70;15.72;;;;;;;6.74;91.63;100939.94;1690697;84;21003;-74
2021/10/17 05:55:01;;;;;;;20.80;15.32;;;;;;;6.80;91.59;100944.88;1680472;85;21091;-73
2021/10/17 05:57:29;;;;;;;19.92;14.73;;;;;;;6.88;91.54;100946.41;1692112;83;21087;-73
2021/10/17 06:00:01;;;;;;;22.52;16.35;;;;;;;6.96;91.43;100946.13;1680553;84;21168;-73
2021/10/17 06:02:36;;;;;;;21.55;16.07;;;;;;;7.00;91.24;100948.63;1672593;84;21681;-72
2021/10/17 06:05:06;;;;;;;22.30;15.95;;;;;;;7.05;91.11;100950.91;1681913;84;21544;-71
2021/10/17 06:07:35;;;;;;;21.85;15.68;;;;;;;7.09;90.87;100947.29;1693951;83;20987;-71
2021/10/17 06:10:09;;;;;;;18.95;14.70;;;;;;;7.12;90.51;100950.83;1692909;83;21070;-72
2021/10/17 06:12:38;;;;;;;22.15;15.93;;;;;;;7.14;90.21;100950.59;1658564;85;21253;-73
2021/10/17 06:15:08;;;;;;;20.50;14.35;;;;;;;7.17;90.09;100954.12;1692331;84;21153;-72
2021/10/17 06:17:35;;;;;;;22.50;15.55;;;;;;;7.20;89.89;100959.80;1658047;85;21062;-72
2021/10/17 06:20:05;;;;;;;21.07;14.47;;;;;;;7.22;89.54;100952.95;1692005;84;21494;-71
2021/10/17 06:22:33;;;;;;;19.55;13.95;;;;;;;7.21;89.31;100949.48;1691318;84;20930;-73
2021/10/17 06:25:01;;;;;;;21.20;15.68;;;;;;;7.24;89.25;100953.03;1680227;85;21827;-75
2021/10/17 06:27:29;;;;;;;22.02;14.78;;;;;;;7.35;89.27;100947.98;1690604;83;20991;-73
2021/10/17 06:29:57;;;;;;;23.10;15.35;;;;;;;7.46;89.21;100952.52;1688448;84;21609;-71
2021/10/17 06:32:25;;;;;;;20.05;15.55;;;;;;;7.59;89.29;100953.65;1678200;84;21171;-71
2021/10/17 06:34:52;;;;;;;20.97;15.00;;;;;;;7.74;89.03;100950.58;1683056;83;21022;-72
2021/10/17 06:37:19;;;;;;;20.70;15.10;;;;;;;7.86;88.42;100954.05;1690614;84;21111;-71
2021/10/17 06:39:46;;;;;;;18.70;13.35;;;;;;;7.95;87.82;100953.20;1683360;84;20967;-71
2021/10/17 06:42:15;;;;;;;21.68;15.10;;;;;;;8.02;87.62;100951.23;1691928;83;21454;-71
2021/10/17 06:44:46;;;;;;;19.15;14.47;;;;;;;8.09;86.78;100951.93;1681834;83;20991;-72
2021/10/17 06:47:13;;;;;;;18.70;13.85;;;;;;;8.12;86.59;100951.47;1678884;85;21094;-72
2021/10/17 06:49:40;;;;;;;19.07;14.75;;;;;;;8.16;86.39;100949.16;1653611;85;21172;-72
2021/10/17 06:52:08;;;;;;;21.33;13.55;;;;;;;8.24;86.27;100948.83;1645804;86;21142;-72
2021/10/17 06:54:36;;;;;;;19.85;14.28;;;;;;;8.32;85.98;100948.46;1679523;84;21168;-73
2021/10/17 06:57:03;;;;;;;20.30;14.78;;;;;;;8.41;85.61;100948.96;1677132;84;21093;-71
2021/10/17 06:59:31;;;;;;;20.40;14.40;;;;;;;8.52;85.33;100946.80;1685855;83;22191;-72
2021/10/17 07:01:58;;;;;;;23.42;14.50;;;;;;;8.59;84.51;100946.17;1657686;84;21126;-72
2021/10/17 07:04:26;;;;;;;20.15;14.53;;;;;;;8.69;84.35;100947.72;1682107;83;21015;-72
2021/10/17 07:06:53;;;;;;;21.33;14.83;;;;;;;8.84;84.05;100949.88;1686255;84;21054;-72
2021/10/17 07:09:20;;;;;;;20.70;14.73;;;;;;;9.01;83.68;100944.61;1683371;83;21101;-73
2021/10/17 07:11:52;;;;;;;18.73;12.60;;;;;;;9.18;83.05;100946.02;1684998;83;21071;-73
2021/10/17 07:14:42;;;;;;;24.80;14.83;;;;;;;9.33;82.00;100945.48;1684419;83;39125;-72
2021/10/17 07:17:27;;;;;;;20.92;14.50;;;;;;;9.46;80.93;100941.72;1672916;84;21038;-73
2021/10/17 07:20:11;;;;;;;21.42;14.55;;;;;;;9.58;80.17;100951.27;1690365;83;21106;-73
2021/10/17 07:22:47;;;;;;;20.40;12.88;;;;;;;9.70;78.92;100951.72;1684351;84;21078;-73
2021/10/17 07:25:16;;;;;;;16.73;12.95;;;;;;;9.76;77.97;100952.89;1675674;83;21433;-72
2021/10/17 07:27:45;;;;;;;19.53;12.83;;;;;;;9.86;77.59;100942.39;1690327;84;21117;-73
2021/10/17 07:30:14;;;;;;;22.00;14.80;;;;;;;9.95;77.00;100938.80;1676247;83;21744;-71
2021/10/17 07:32:42;;;;;;;19.17;13.80;;;;;;;10.03;76.09;100944.25;1679556;84;21802;-72
2021/10/17 07:35:09;;;;;;;19.05;12.30;;;;;;;10.13;75.87;100939.59;1675803;84;21300;-71
2021/10/17 07:37:36;;;;;;;20.90;14.87;;;;;;;10.26;75.65;100941.41;1690392;83;21117;-73
2021/10/17 07:40:06;;;;;;;23.17;13.23;;;;;;;10.38;74.29;100939.19;1690789;83;21252;-73
2021/10/17 07:42:35;;;;;;;24.83;14.97;;;;;;;10.41;73.83;100950.72;1687906;83;21297;-73
2021/10/17 07:45:03;;;;;;;23.13;14.83;;;;;;;10.46;73.55;100951.60;1631158;86;21266;-72
2021/10/17 07:47:35;;;;;;;22.83;14.10;;;;;;;10.51;73.25;100950.85;1691721;83;21338;-72
2021/10/17 07:50:05;;;;;;;18.37;13.53;;;;;;;10.59;73.22;100939.73;1680124;83;21331;-73
2021/10/17 07:52:36;;;;;;;19.03;13.93;;;;;;;10.69;72.50;100946.53;1661305;84;21348;-73
2021/10/17 07:55:07;;;;;;;20.00;14.17;;;;;;;10.67;71.92;100954.54;1691151;84;22044;-73
2021/10/17 07:57:53;;;;;;;20.17;15.28;;;;;;;10.64;71.63;100952.36;1690459;83;26963;-73
2021/10/17 08:00:26;;;;;;;20.40;14.03;;;;;;;10.58;70.97;100952.01;1690545;83;21091;-72
2021/10/17 08:03:08;;;;;;;27.40;17.27;;;;;;;10.48;71.19;100952.15;1687510;83;21260;-73
2021/10/17 08:05:35;;;;;;;24.60;15.80;;;;;;;10.47;71.14;100956.41;1675565;84;21767;-73
2021/10/17 08:08:05;;;;;;;19.23;13.87;;;;;;;10.49;71.47;100952.95;1689808;83;21153;-73
2021/10/17 08:10:32;;;;;;;19.97;13.47;;;;;;;10.56;71.65;100951.73;1686196;84;21260;-72
2021/10/17 08:13:01;;;;;;;20.57;14.00;;;;;;;10.63;71.50;100946.22;1683378;83;21287;-72
2021/10/17 08:15:40;;;;;;;20.48;13.78;;;;;;;10.72;70.87;100951.91;1689534;83;21246;-72
2021/10/17 08:18:15;;;;;;;18.43;12.57;;;;;;;10.77;70.71;100944.78;1641830;85;21155;-73
2021/10/17 08:20:50;;;;;;;22.50;12.97;;;;;;;10.90;70.34;100946.81;1678927;83;21347;-72
2021/10/17 08:23:18;;;;;;;18.43;13.07;;;;;;;11.02;69.63;100953.64;1690295;83;21432;-71
2021/10/17 08:25:46;;;;;;;21.60;13.50;;;;;;;11.10;69.03;100950.24;1686347;83;21266;-71
2021/10/17 08:28:15;;;;;;;18.47;12.87;;;;;;;11.19;68.46;100945.53;1681780;84;21436;-72
2021/10/17 08:30:46;;;;;;;22.97;13.60;;;;;;;11.23;67.74;100948.52;1674979;84;21529;-72
2021/10/17 08:33:14;;;;;;;21.33;14.13;;;;;;;11.30;67.60;100956.34;1679949;84;21604;-71
2021/10/17 08:35:41;;;;;;;17.90;12.77;;;;;;;11.33;67.23;100943.27;1669784;84;21399;-71
2021/10/17 08:38:11;;;;;;;18.40;12.70;;;;;;;11.39;67.07;100946.80;1684765;84;21318;-71
2021/10/17 08:40:40;;;;;;;18.77;11.73;;;;;;;11.48;66.92;100944.77;1675961;83;21228;-71
2021/10/17 08:43:21;;;;;;;17.70;11.07;;;;;;;11.61;66.45;100944.85;1667088;84;21375;-70
2021/10/17 08:45:50;;;;;;;15.63;10.97;;;;;;;11.73;65.70;100946.03;1684212;83;21137;-71
2021/10/17 08:48:20;;;;;;;14.80;9.47;;;;;;;11.79;64.87;100948.23;1686143;83;21602;-72
2021/10/17 08:50:54;;;;;;;15.60;10.67;;;;;;;11.81;64.41;100948.23;1679338;84;21244;-72
2021/10/17 08:53:23;;;;;;;14.40;9.67;;;;;;;11.78;63.97;100943.41;1691257;84;21787;-73
2021/10/17 08:55:55;;;;;;;13.30;9.37;;;;;;;11.71;64.15;100945.47;1691773;84;21334;-72
2021/10/17 08:58:27;;;;;;;13.72;8.95;;;;;;;11.70;64.46;100944.67;1689612;84;21079;-72
2021/10/17 09:00:54;;;;;;;14.40;9.50;;;;;;;11.75;64.07;100949.28;1691303;84;21059;-71
2021/10/17 09:03:33;;;;;;;16.47;10.10;;;;;;;11.79;63.35;100945.55;1687633;83;21366;-71
2021/10/17 09:06:21;;;;;;;15.47;9.77;;;;;;;11.84;62.84;100941.56;1664296;84;21104;-71
2021/10/17 09:09:06;;;;;;;15.20;9.40;;;;;;;11.94;62.73;100939.00;1678548;83;21347;-72
2021/10/17 09:11:53;;;;;;;17.40;9.00;;;;;;;12.12;61.91;100940.48;1667723;85;21297;-71
2021/10/17 09:14:24;;;;;;;12.37;8.17;;;;;;;12.23;61.23;100942.14;1688073;83;21266;-71
2021/10/17 09:16:55;;;;;;;12.73;7.43;;;;;;;12.32;60.48;100936.59;1669778;83;21351;-72
2021/10/17 09:19:25;;;;;;;12.83;7.73;;;;;;;12.38;59.80;100934.21;1686547;83;21239;-72
2021/10/17 09:22:08;;;;;;;10.33;7.10;;;;;;;12.49;59.50;100927.56;1663814;85;21195;-72
2021/10/17 09:24:49;;;;;;;13.20;8.17;;;;;;;12.60;59.38;100915.81;1683697;83;21220;-72
2021/10/17 09:27:24;;;;;;;11.47;7.07;;;;;;;12.73;58.46;100926.59;1679246;85;21922;-72
2021/10/17 09:29:54;;;;;;;11.40;6.63;;;;;;;12.85;57.08;100913.24;1687158;83;21369;-73
2021/10/17 09:32:27;;;;;;;9.80;6.10;;;;;;;12.98;56.44;100913.28;1685484;83;21334;-73
2021/10/17 09:34:59;;;;;;;12.40;5.33;;;;;;;13.07;56.25;100913.59;1682450;84;21542;-73
2021/10/17 09:37:39;;;;;;;8.07;4.73;;;;;;;12.96;52.21;100914.61;1666000;84;21455;-74
2021/10/17 09:40:25;;;;;;;11.50;5.00;;;;;;;12.96;52.21;100914.61;1679815;84;21362;-72
2021/10/17 09:43:11;;;;;;;12.33;5.03;;;;;;;12.83;51.98;100913.23;1668077;84;21462;-72
2021/10/17 09:45:42;;;;;;;7.07;3.87;;;;;;;12.75;50.90;100905.17;1673294;85;21722;-72
2021/10/17 09:48:09;;;;;;;9.37;4.67;;;;;;;12.75;50.90;100905.17;1691343;83;21460;-72
2021/10/17 09:50:37;;;;;;;8.37;4.40;;;;;;;12.79;50.93;100908.93;1691588;84;21439;-72
2021/10/17 09:53:09;;;;;;;9.03;4.50;;;;;;;12.91;50.82;100901.47;1691466;83;21469;-71
2021/10/17 09:55:41;;;;;;;7.63;4.20;;;;;;;13.10;49.89;100894.29;1690437;84;21555;-69
2021/10/17 09:58:08;;;;;;;8.50;4.30;;;;;;;13.10;49.89;100894.29;1691203;84;21611;-72
2021/10/17 10:00:39;;;;;;;7.27;3.87;;;;;;;13.10;49.67;100896.43;1689670;83;21559;-72
2021/10/17 10:03:07;;;;;;;8.70;4.20;;;;;;;13.07;49.02;100901.52;1692368;83;21745;-72
2021/10/17 10:05:33;;;;;;;8.17;4.33;;;;;;;13.06;48.84;100898.55;1690559;83;21127;-72
2021/10/17 10:08:01;;;;;;;9.80;4.73;;;;;;;13.12;49.65;100896.15;1678282;84;21564;-72
2021/10/17 10:10:28;;;;;;;8.80;4.53;;;;;;;13.12;49.65;100896.15;1667375;84;21512;-72
2021/10/17 10:13:03;;;;;;;9.23;4.10;;;;;;;13.26;49.33;100890.59;1687834;83;21567;-72
2021/10/17 10:15:31;;;;;;;9.97;4.30;;;;;;;13.28;48.83;100891.11;1692106;83;21574;-72
2021/10/17 10:18:00;;;;;;;9.73;4.10;;;;;;;13.23;48.81;100887.61;1691055;83;21750;-72
2021/10/17 10:20:28;;;;;;;8.30;3.97;;;;;;;13.16;48.70;100901.25;1673355;83;21572;-73
2021/10/17 10:22:55;;;;;;;10.47;4.30;;;;;;;13.16;48.70;100901.25;1684725;83;21680;-71
2021/10/17 10:25:23;;;;;;;10.70;4.40;;;;;;;13.00;48.56;100886.22;1680429;83;21527;-72
2021/10/17 10:27:49;;;;;;;11.83;5.00;;;;;;;12.87;48.77;100884.31;1691821;83;21566;-71
2021/10/17 10:30:31;;;;;;;9.77;4.50;;;;;;;12.70;49.29;100894.95;1689334;83;21489;-72
2021/10/17 10:33:09;;;;;;;7.72;4.37;;;;;;;12.60;48.59;100891.19;1687481;83;21600;-71
2021/10/17 10:35:37;;;;;;;8.63;4.50;;;;;;;12.60;48.59;100891.19;1687637;83;21098;-72
2021/10/17 10:38:03;;;;;;;8.53;4.17;;;;;;;12.52;49.70;100895.70;1690704;83;21597;-71
2021/10/17 10:40:30;;;;;;;10.07;4.67;;;;;;;12.54;49.85;100894.11;1656701;85;21426;-71
2021/10/17 10:43:03;;;;;;;9.50;4.70;;;;;;;12.59;49.55;100890.09;1691121;83;21514;-72
2021/10/17 10:45:35;;;;;;;12.83;4.67;;;;;;;12.54;49.47;100890.89;1690614;83;21597;-71
2021/10/17 10:48:15;;;;;;;8.63;4.97;;;;;;;12.54;49.47;100890.89;1690203;83;21445;-72
2021/10/17 10:50:46;;;;;;;9.43;4.53;;;;;;;12.54;49.25;100886.08;1668960;83;21410;-71
2021/10/17 10:53:48;;;;;;;9.00;4.27;;;;;;;12.50;49.12;100880.94;1686750;83;21957;-72
2021/10/17 10:56:41;;;;;;;9.57;4.40;;;;;;;12.43;48.78;100876.63;1680063;83;22490;-71
2021/10/17 10:59:09;;;;;;;8.73;4.22;;;;;;;12.39;49.11;100872.86;1689854;84;21433;-73
2021/10/17 11:01:55;;;;;;;10.50;4.33;;;;;;;12.48;49.08;100879.88;1689385;83;21018;-73
2021/10/17 11:04:46;;;;;;;7.73;4.23;;;;;;;12.53;48.50;100878.55;1691726;83;21597;-71
2021/10/17 11:07:26;;;;;;;9.97;4.97;;;;;;;12.58;48.61;100869.73;1667609;84;21469;-71
2021/10/17 11:09:57;;;;;;;7.87;4.13;;;;;;;12.62;48.73;100874.30;1658946;86;21397;-72
2021/10/17 11:12:46;;;;;;;10.53;4.80;;;;;;;12.62;48.73;100874.30;1659919;86;21508;-71
2021/10/17 11:15:18;;;;;;;10.47;4.53;;;;;;;12.65;48.59;100863.59;1649528;85;21684;-72
2021/10/17 11:18:04;;;;;;;10.48;4.70;;;;;;;12.65;48.59;100863.59;1692126;83;21541;-72
2021/10/17 11:20:43;;;;;;;9.13;4.67;;;;;;;12.70;48.63;100864.97;1688325;83;21018;-72
2021/10/17 11:23:25;;;;;;;11.47;4.80;;;;;;;12.70;48.63;100864.97;1688580;84;21556;-73
2021/10/17 11:25:58;;;;;;;9.43;4.60;;;;;;;12.72;48.49;100865.48;1675471;85;21569;-73
2021/10/17 11:28:27;;;;;;;14.07;5.37;;;;;;;12.68;47.13;100863.87;1679231;83;21419;-73
2021/10/17 11:31:15;;;;;;;7.57;4.10;;;;;;;12.68;47.13;100863.87;1679832;83;21978;-72